sensor_id;sensor_type;location;lat;lon;timestamp;pressure;altitude;pressure_sealevel;temperature;humidity
51496;BME280;37572;52.094;4.870;2024-02-28T00:00:54;102035.56;;;8.17;56.47
51496;BME280;37572;52.094;4.870;2024-02-28T00:03:19;102043.50;;;8.17;56.83
51496;BME280;37572;52.094;4.870;2024-02-28T00:05:45;102044.25;;;8.19;56.83
51496;BME280;37572;52.094;4.870;2024-02-28T00:08:10;102032.78;;;8.19;56.47
51496;BME280;37572;52.094;4.870;2024-02-28T00:10:36;102030.13;;;8.19;56.76
51496;BME280;37572;52.094;4.870;2024-02-28T00:13:01;102019.53;;;8.19;56.90
51496;BME280;37572;52.094;4.870;2024-02-28T00:15:26;102024.00;;;8.18;56.64
51496;BME280;37572;52.094;4.870;2024-02-28T00:17:54;102021.44;;;8.17;56.54
51496;BME280;37572;52.094;4.870;2024-02-28T00:20:19;102024.00;;;8.18;56.75
51496;BME280;37572;52.094;4.870;2024-02-28T00:22:45;102019.53;;;8.19;56.93
51496;BME280;37572;52.094;4.870;2024-02-28T00:25:10;102031.09;;;8.18;56.47
51496;BME280;37572;52.094;4.870;2024-02-28T00:27:36;102027.50;;;8.19;57.31
51496;BME280;37572;52.094;4.870;2024-02-28T00:30:03;102023.38;;;8.14;56.87
51496;BME280;37572;52.094;4.870;2024-02-28T00:32:31;102024.53;;;8.10;56.73
51496;BME280;37572;52.094;4.870;2024-02-28T00:34:56;102032.72;;;8.07;56.62
51496;BME280;37572;52.094;4.870;2024-02-28T00:37:22;102028.50;;;8.05;57.17
51496;BME280;37572;52.094;4.870;2024-02-28T00:39:47;102035.72;;;8.03;56.99
51496;BME280;37572;52.094;4.870;2024-02-28T00:42:12;102026.06;;;8.02;57.07
51496;BME280;37572;52.094;4.870;2024-02-28T00:44:37;102024.25;;;8.02;57.05
51496;BME280;37572;52.094;4.870;2024-02-28T00:47:03;102033.91;;;8.03;57.17
51496;BME280;37572;52.094;4.870;2024-02-28T00:49:28;102031.25;;;8.03;57.25
51496;BME280;37572;52.094;4.870;2024-02-28T00:51:53;102026.16;;;8.00;57.57
51496;BME280;37572;52.094;4.870;2024-02-28T00:54:19;102027.34;;;7.96;57.17
51496;BME280;37572;52.094;4.870;2024-02-28T00:56:44;102023.81;;;7.95;57.61
51496;BME280;37572;52.094;4.870;2024-02-28T00:59:09;102030.84;;;7.96;57.22
51496;BME280;37572;52.094;4.870;2024-02-28T01:01:37;102032.66;;;7.96;57.73
51496;BME280;37572;52.094;4.870;2024-02-28T01:04:03;102021.28;;;7.94;57.24
51496;BME280;37572;52.094;4.870;2024-02-28T01:06:28;102027.56;;;7.93;57.73
51496;BME280;37572;52.094;4.870;2024-02-28T01:08:53;102025.84;;;7.92;57.45
51496;BME280;37572;52.094;4.870;2024-02-28T01:11:19;102031.47;;;7.87;57.34
51496;BME280;37572;52.094;4.870;2024-02-28T01:13:44;102030.66;;;7.87;57.78
51496;BME280;37572;52.094;4.870;2024-02-28T01:16:09;102029.69;;;7.88;57.58
51496;BME280;37572;52.094;4.870;2024-02-28T01:18:34;102031.38;;;7.89;57.65
51496;BME280;37572;52.094;4.870;2024-02-28T01:21:00;102025.97;;;7.90;57.88
51496;BME280;37572;52.094;4.870;2024-02-28T01:23:25;102030.44;;;7.90;57.94
51496;BME280;37572;52.094;4.870;2024-02-28T01:25:50;102025.13;;;7.90;57.55
51496;BME280;37572;52.094;4.870;2024-02-28T01:28:15;102027.78;;;7.90;57.44
51496;BME280;37572;52.094;4.870;2024-02-28T01:30:41;102017.38;;;7.87;57.64
51496;BME280;37572;52.094;4.870;2024-02-28T01:33:06;102017.50;;;7.85;57.46
51496;BME280;37572;52.094;4.870;2024-02-28T01:35:31;102016.88;;;7.82;58.20
51496;BME280;37572;52.094;4.870;2024-02-28T01:37:57;102025.97;;;7.77;58.01
51496;BME280;37572;52.094;4.870;2024-02-28T01:40:22;102019.22;;;7.73;58.22
51496;BME280;37572;52.094;4.870;2024-02-28T01:42:47;102022.06;;;7.70;58.29
51496;BME280;37572;52.094;4.870;2024-02-28T01:45:14;102019.53;;;7.69;58.29
51496;BME280;37572;52.094;4.870;2024-02-28T01:47:41;102014.22;;;7.69;58.63
51496;BME280;37572;52.094;4.870;2024-02-28T01:50:07;102006.38;;;7.67;58.32
51496;BME280;37572;52.094;4.870;2024-02-28T01:52:32;102009.66;;;7.71;58.66
51496;BME280;37572;52.094;4.870;2024-02-28T01:54:58;102006.16;;;7.70;58.49
51496;BME280;37572;52.094;4.870;2024-02-28T01:57:24;102012.31;;;7.71;58.31
51496;BME280;37572;52.094;4.870;2024-02-28T01:59:49;102003.63;;;7.69;58.80
51496;BME280;37572;52.094;4.870;2024-02-28T02:02:15;102017.84;;;7.68;58.65
51496;BME280;37572;52.094;4.870;2024-02-28T02:04:40;102005.44;;;7.68;58.32
51496;BME280;37572;52.094;4.870;2024-02-28T02:07:06;102011.78;;;7.66;58.80
51496;BME280;37572;52.094;4.870;2024-02-28T02:09:33;102011.03;;;7.64;58.42
51496;BME280;37572;52.094;4.870;2024-02-28T02:11:59;102006.69;;;7.63;58.88
51496;BME280;37572;52.094;4.870;2024-02-28T02:14:24;102012.00;;;7.63;58.66
51496;BME280;37572;52.094;4.870;2024-02-28T02:16:50;102008.72;;;7.59;58.77
51496;BME280;37572;52.094;4.870;2024-02-28T02:19:15;102000.03;;;7.57;58.71
51496;BME280;37572;52.094;4.870;2024-02-28T02:21:46;102009.91;;;7.55;59.08
51496;BME280;37572;52.094;4.870;2024-02-28T02:24:13;102007.34;;;7.53;59.33
51496;BME280;37572;52.094;4.870;2024-02-28T02:26:38;102006.63;;;7.51;58.98
51496;BME280;37572;52.094;4.870;2024-02-28T02:29:04;102007.47;;;7.52;59.45
51496;BME280;37572;52.094;4.870;2024-02-28T02:31:29;102012.53;;;7.55;59.49
51496;BME280;37572;52.094;4.870;2024-02-28T02:33:55;102013.28;;;7.57;59.04
51496;BME280;37572;52.094;4.870;2024-02-28T02:36:21;102007.97;;;7.57;59.02
51496;BME280;37572;52.094;4.870;2024-02-28T02:38:46;102009.78;;;7.56;59.26
51496;BME280;37572;52.094;4.870;2024-02-28T02:41:12;102013.06;;;7.60;59.09
51496;BME280;37572;52.094;4.870;2024-02-28T02:43:38;102021.75;;;7.62;59.22
51496;BME280;37572;52.094;4.870;2024-02-28T02:46:03;102021.56;;;7.65;59.40
51496;BME280;37572;52.094;4.870;2024-02-28T02:48:29;102019.72;;;7.66;59.16
51496;BME280;37572;52.094;4.870;2024-02-28T02:50:54;102013.59;;;7.65;59.20
51496;BME280;37572;52.094;4.870;2024-02-28T02:53:19;102016.88;;;7.69;59.07
51496;BME280;37572;52.094;4.870;2024-02-28T02:55:45;102008.81;;;7.70;59.16
51496;BME280;37572;52.094;4.870;2024-02-28T02:58:11;102005.22;;;7.71;59.07
51496;BME280;37572;52.094;4.870;2024-02-28T03:00:36;102004.13;;;7.74;59.41
51496;BME280;37572;52.094;4.870;2024-02-28T03:03:01;102002.56;;;7.71;59.08
51496;BME280;37572;52.094;4.870;2024-02-28T03:05:26;102003.63;;;7.69;59.52
51496;BME280;37572;52.094;4.870;2024-02-28T03:07:52;102000.44;;;7.64;59.39
51496;BME280;37572;52.094;4.870;2024-02-28T03:10:17;102000.34;;;7.65;59.45
51496;BME280;37572;52.094;4.870;2024-02-28T03:12:42;101992.38;;;7.65;59.40
51496;BME280;37572;52.094;4.870;2024-02-28T03:15:08;101996.50;;;7.69;59.29
51496;BME280;37572;52.094;4.870;2024-02-28T03:17:33;102008.06;;;7.68;59.03
51496;BME280;37572;52.094;4.870;2024-02-28T03:19:58;102002.47;;;7.73;59.55
51496;BME280;37572;52.094;4.870;2024-02-28T03:22:24;102005.00;;;7.74;59.72
51496;BME280;37572;52.094;4.870;2024-02-28T03:24:49;102000.66;;;7.73;59.73
51496;BME280;37572;52.094;4.870;2024-02-28T03:27:15;101994.50;;;7.73;59.67
51496;BME280;37572;52.094;4.870;2024-02-28T03:29:40;101999.91;;;7.71;59.28
51496;BME280;37572;52.094;4.870;2024-02-28T03:32:05;101993.84;;;7.69;59.53
51496;BME280;37572;52.094;4.870;2024-02-28T03:34:31;101994.81;;;7.68;59.36
51496;BME280;37572;52.094;4.870;2024-02-28T03:36:56;101993.13;;;7.67;59.71
51496;BME280;37572;52.094;4.870;2024-02-28T03:39:21;101986.13;;;7.66;59.48
51496;BME280;37572;52.094;4.870;2024-02-28T03:41:47;101988.78;;;7.66;59.86
51496;BME280;37572;52.094;4.870;2024-02-28T03:44:13;101993.13;;;7.67;59.81
51496;BME280;37572;52.094;4.870;2024-02-28T03:46:38;101989.63;;;7.67;59.92
51496;BME280;37572;52.094;4.870;2024-02-28T03:49:03;101995.78;;;7.67;59.85
51496;BME280;37572;52.094;4.870;2024-02-28T03:51:29;101994.59;;;7.71;60.05
51496;BME280;37572;52.094;4.870;2024-02-28T03:53:57;101992.47;;;7.76;60.22
51496;BME280;37572;52.094;4.870;2024-02-28T03:56:23;101996.69;;;7.79;60.21
51496;BME280;37572;52.094;4.870;2024-02-28T03:58:50;101999.03;;;7.84;60.50
51496;BME280;37572;52.094;4.870;2024-02-28T04:01:16;101989.91;;;7.88;60.60
51496;BME280;37572;52.094;4.870;2024-02-28T04:03:41;101996.91;;;7.89;60.62
51496;BME280;37572;52.094;4.870;2024-02-28T04:06:06;101988.94;;;7.89;60.85
51496;BME280;37572;52.094;4.870;2024-02-28T04:08:32;101992.22;;;7.92;60.96
51496;BME280;37572;52.094;4.870;2024-02-28T04:10:57;101986.78;;;7.94;60.70
51496;BME280;37572;52.094;4.870;2024-02-28T04:13:22;101991.88;;;7.97;60.67
51496;BME280;37572;52.094;4.870;2024-02-28T04:15:47;101990.47;;;8.04;60.84
51496;BME280;37572;52.094;4.870;2024-02-28T04:18:13;101994.41;;;8.11;60.75
51496;BME280;37572;52.094;4.870;2024-02-28T04:20:38;101996.47;;;8.19;60.55
51496;BME280;37572;52.094;4.870;2024-02-28T04:23:04;102003.28;;;8.23;60.52
51496;BME280;37572;52.094;4.870;2024-02-28T04:25:29;102001.34;;;8.25;60.93
51496;BME280;37572;52.094;4.870;2024-02-28T04:27:54;102002.94;;;8.28;61.11
51496;BME280;37572;52.094;4.870;2024-02-28T04:30:21;102006.53;;;8.27;60.79
51496;BME280;37572;52.094;4.870;2024-02-28T04:32:46;102017.78;;;8.30;61.18
51496;BME280;37572;52.094;4.870;2024-02-28T04:35:11;102007.06;;;8.32;60.97
51496;BME280;37572;52.094;4.870;2024-02-28T04:37:36;102018.19;;;8.37;61.05
51496;BME280;37572;52.094;4.870;2024-02-28T04:40:03;102027.56;;;8.43;60.64
51496;BME280;37572;52.094;4.870;2024-02-28T04:42:28;102026.97;;;8.50;60.63
51496;BME280;37572;52.094;4.870;2024-02-28T04:44:53;102030.88;;;8.58;60.60
51496;BME280;37572;52.094;4.870;2024-02-28T04:47:19;102028.75;;;8.63;60.69
51496;BME280;37572;52.094;4.870;2024-02-28T04:49:44;102034.56;;;8.68;60.79
51496;BME280;37572;52.094;4.870;2024-02-28T04:52:09;102036.84;;;8.73;60.69
51496;BME280;37572;52.094;4.870;2024-02-28T04:54:35;102029.53;;;8.76;60.41
51496;BME280;37572;52.094;4.870;2024-02-28T04:57:00;102033.75;;;8.79;60.49
51496;BME280;37572;52.094;4.870;2024-02-28T04:59:26;102034.22;;;8.84;60.54
51496;BME280;37572;52.094;4.870;2024-02-28T05:01:51;102039.31;;;8.87;60.38
51496;BME280;37572;52.094;4.870;2024-02-28T05:04:17;102026.88;;;8.87;60.21
51496;BME280;37572;52.094;4.870;2024-02-28T05:06:42;102026.66;;;8.91;59.92
51496;BME280;37572;52.094;4.870;2024-02-28T05:09:07;102028.13;;;8.95;60.33
51496;BME280;37572;52.094;4.870;2024-02-28T05:11:34;102027.25;;;8.94;60.17
51496;BME280;37572;52.094;4.870;2024-02-28T05:13:59;102026.19;;;8.97;60.07
51496;BME280;37572;52.094;4.870;2024-02-28T05:16:24;102017.63;;;8.93;60.21
51496;BME280;37572;52.094;4.870;2024-02-28T05:18:50;102012.66;;;8.88;60.19
51496;BME280;37572;52.094;4.870;2024-02-28T05:21:15;102022.56;;;8.86;60.05
51496;BME280;37572;52.094;4.870;2024-02-28T05:23:40;102030.84;;;8.82;60.42
51496;BME280;37572;52.094;4.870;2024-02-28T05:26:06;102037.25;;;8.79;60.46
51496;BME280;37572;52.094;4.870;2024-02-28T05:28:32;102037.13;;;8.81;60.64
51496;BME280;37572;52.094;4.870;2024-02-28T05:31:02;102035.34;;;8.81;60.66
51496;BME280;37572;52.094;4.870;2024-02-28T05:33:35;102029.53;;;8.87;60.70
51496;BME280;37572;52.094;4.870;2024-02-28T05:36:00;102028.34;;;8.92;60.37
51496;BME280;37572;52.094;4.870;2024-02-28T05:38:25;102035.13;;;8.96;60.47
51496;BME280;37572;52.094;4.870;2024-02-28T05:40:51;102028.84;;;8.97;60.75
51496;BME280;37572;52.094;4.870;2024-02-28T05:43:16;102036.72;;;8.98;60.66
51496;BME280;37572;52.094;4.870;2024-02-28T05:45:41;102032.25;;;8.99;60.42
51496;BME280;37572;52.094;4.870;2024-02-28T05:48:06;102029.81;;;8.96;60.62
51496;BME280;37572;52.094;4.870;2024-02-28T05:50:32;102027.25;;;8.94;60.46
51496;BME280;37572;52.094;4.870;2024-02-28T05:52:58;102033.66;;;8.92;60.84
51496;BME280;37572;52.094;4.870;2024-02-28T05:55:23;102032.84;;;8.91;60.80
51496;BME280;37572;52.094;4.870;2024-02-28T05:57:49;102038.03;;;8.93;60.78
51496;BME280;37572;52.094;4.870;2024-02-28T06:00:14;102033.44;;;8.95;61.14
51496;BME280;37572;52.094;4.870;2024-02-28T06:02:40;102036.81;;;8.97;61.23
51496;BME280;37572;52.094;4.870;2024-02-28T06:05:07;102033.22;;;8.98;60.88
51496;BME280;37572;52.094;4.870;2024-02-28T06:07:32;102037.22;;;9.03;61.18
51496;BME280;37572;52.094;4.870;2024-02-28T06:09:58;102026.34;;;9.06;60.92
51496;BME280;37572;52.094;4.870;2024-02-28T06:12:23;102031.78;;;9.05;60.82
51496;BME280;37572;52.094;4.870;2024-02-28T06:14:49;102025.00;;;9.01;61.19
51496;BME280;37572;52.094;4.870;2024-02-28T06:17:14;102038.28;;;9.01;61.12
51496;BME280;37572;52.094;4.870;2024-02-28T06:19:39;102036.38;;;9.03;60.85
51496;BME280;37572;52.094;4.870;2024-02-28T06:22:05;102031.06;;;9.03;60.68
51496;BME280;37572;52.094;4.870;2024-02-28T06:24:33;102036.25;;;9.04;61.18
51496;BME280;37572;52.094;4.870;2024-02-28T06:26:59;102036.00;;;9.07;61.16
51496;BME280;37572;52.094;4.870;2024-02-28T06:29:24;102035.88;;;9.09;60.99
51496;BME280;37572;52.094;4.870;2024-02-28T06:31:51;102050.03;;;9.10;61.07
51496;BME280;37572;52.094;4.870;2024-02-28T06:34:16;102057.03;;;9.11;61.27
51496;BME280;37572;52.094;4.870;2024-02-28T06:36:42;102057.63;;;9.14;61.17
51496;BME280;37572;52.094;4.870;2024-02-28T06:39:07;102065.38;;;9.17;61.28
51496;BME280;37572;52.094;4.870;2024-02-28T06:41:33;102059.00;;;9.20;61.11
51496;BME280;37572;52.094;4.870;2024-02-28T06:43:58;102070.94;;;9.14;61.22
51496;BME280;37572;52.094;4.870;2024-02-28T06:46:25;102074.56;;;9.13;61.29
51496;BME280;37572;52.094;4.870;2024-02-28T06:48:50;102081.69;;;9.13;61.12
51496;BME280;37572;52.094;4.870;2024-02-28T06:51:16;102082.03;;;9.08;61.30
51496;BME280;37572;52.094;4.870;2024-02-28T06:53:42;102088.31;;;9.07;61.37
51496;BME280;37572;52.094;4.870;2024-02-28T06:56:08;102080.34;;;9.07;62.03
51496;BME280;37572;52.094;4.870;2024-02-28T06:58:33;102084.81;;;9.06;61.50
51496;BME280;37572;52.094;4.870;2024-02-28T07:00:59;102088.66;;;9.02;61.74
51496;BME280;37572;52.094;4.870;2024-02-28T07:03:25;102087.69;;;9.03;62.04
51496;BME280;37572;52.094;4.870;2024-02-28T07:05:50;102084.44;;;9.00;62.19
51496;BME280;37572;52.094;4.870;2024-02-28T07:08:15;102097.00;;;8.98;62.24
51496;BME280;37572;52.094;4.870;2024-02-28T07:10:41;102099.53;;;8.99;62.41
51496;BME280;37572;52.094;4.870;2024-02-28T07:13:08;102096.13;;;8.97;62.44
51496;BME280;37572;52.094;4.870;2024-02-28T07:15:34;102086.25;;;8.99;62.91
51496;BME280;37572;52.094;4.870;2024-02-28T07:17:59;102091.41;;;9.01;62.94
51496;BME280;37572;52.094;4.870;2024-02-28T07:20:24;102094.59;;;9.06;62.85
51496;BME280;37572;52.094;4.870;2024-02-28T07:22:50;102099.56;;;9.11;62.72
51496;BME280;37572;52.094;4.870;2024-02-28T07:25:15;102098.50;;;9.13;62.86
51496;BME280;37572;52.094;4.870;2024-02-28T07:27:40;102103.47;;;9.18;62.79
51496;BME280;37572;52.094;4.870;2024-02-28T07:30:06;102098.25;;;9.16;63.05
51496;BME280;37572;52.094;4.870;2024-02-28T07:32:31;102102.47;;;9.19;63.02
51496;BME280;37572;52.094;4.870;2024-02-28T07:35:00;102106.00;;;9.19;62.88
51496;BME280;37572;52.094;4.870;2024-02-28T07:37:25;102109.63;;;9.18;62.93
51496;BME280;37572;52.094;4.870;2024-02-28T07:39:51;102117.47;;;9.20;63.03
51496;BME280;37572;52.094;4.870;2024-02-28T07:42:16;102112.16;;;9.20;62.83
51496;BME280;37572;52.094;4.870;2024-02-28T07:44:43;102106.97;;;9.18;63.10
51496;BME280;37572;52.094;4.870;2024-02-28T07:47:08;102112.16;;;9.20;62.75
51496;BME280;37572;52.094;4.870;2024-02-28T07:49:33;102123.53;;;9.22;62.94
51496;BME280;37572;52.094;4.870;2024-02-28T07:51:59;102118.94;;;9.24;63.06
51496;BME280;37572;52.094;4.870;2024-02-28T07:54:24;102122.94;;;9.30;63.00
51496;BME280;37572;52.094;4.870;2024-02-28T07:56:50;102119.31;;;9.31;63.05
51496;BME280;37572;52.094;4.870;2024-02-28T07:59:15;102121.63;;;9.35;63.17
51496;BME280;37572;52.094;4.870;2024-02-28T08:01:40;102119.56;;;9.39;63.14
51496;BME280;37572;52.094;4.870;2024-02-28T08:04:06;102125.38;;;9.44;62.96
51496;BME280;37572;52.094;4.870;2024-02-28T08:06:31;102134.13;;;9.46;63.15
51496;BME280;37572;52.094;4.870;2024-02-28T08:08:58;102129.53;;;9.48;63.21
51496;BME280;37572;52.094;4.870;2024-02-28T08:11:23;102144.03;;;9.55;63.07
51496;BME280;37572;52.094;4.870;2024-02-28T08:13:50;102135.84;;;9.58;63.04
51496;BME280;37572;52.094;4.870;2024-02-28T08:16:15;102139.81;;;9.64;63.05
51496;BME280;37572;52.094;4.870;2024-02-28T08:18:41;102139.25;;;9.72;62.84
51496;BME280;37572;52.094;4.870;2024-02-28T08:21:06;102147.47;;;9.80;62.97
51496;BME280;37572;52.094;4.870;2024-02-28T08:23:31;102143.38;;;9.87;62.76
51496;BME280;37572;52.094;4.870;2024-02-28T08:25:57;102151.59;;;9.95;62.86
51496;BME280;37572;52.094;4.870;2024-02-28T08:28:22;102155.75;;;9.99;62.51
51496;BME280;37572;52.094;4.870;2024-02-28T08:30:48;102159.84;;;10.04;62.47
51496;BME280;37572;52.094;4.870;2024-02-28T08:33:13;102157.66;;;10.09;62.49
51496;BME280;37572;52.094;4.870;2024-02-28T08:35:39;102159.13;;;10.13;62.43
51496;BME280;37572;52.094;4.870;2024-02-28T08:38:04;102166.63;;;10.19;62.27
51496;BME280;37572;52.094;4.870;2024-02-28T08:40:29;102165.53;;;10.22;62.25
51496;BME280;37572;52.094;4.870;2024-02-28T08:42:55;102169.91;;;10.23;62.05
51496;BME280;37572;52.094;4.870;2024-02-28T08:45:22;102173.28;;;10.25;62.13
51496;BME280;37572;52.094;4.870;2024-02-28T08:47:48;102172.06;;;10.29;62.32
51496;BME280;37572;52.094;4.870;2024-02-28T08:50:13;102169.81;;;10.35;62.08
51496;BME280;37572;52.094;4.870;2024-02-28T08:52:38;102163.03;;;10.43;61.94
51496;BME280;37572;52.094;4.870;2024-02-28T08:55:04;102162.53;;;10.49;61.92
51496;BME280;37572;52.094;4.870;2024-02-28T08:57:29;102164.72;;;10.55;61.96
51496;BME280;37572;52.094;4.870;2024-02-28T08:59:55;102157.91;;;10.62;61.94
51496;BME280;37572;52.094;4.870;2024-02-28T09:02:21;102157.06;;;10.73;61.93
51496;BME280;37572;52.094;4.870;2024-02-28T09:04:47;102153.03;;;10.79;61.64
51496;BME280;37572;52.094;4.870;2024-02-28T09:07:17;102157.16;;;10.83;61.61
51496;BME280;37572;52.094;4.870;2024-02-28T09:09:45;102157.38;;;10.91;61.45
51496;BME280;37572;52.094;4.870;2024-02-28T09:12:10;102162.06;;;10.99;61.60
51496;BME280;37572;52.094;4.870;2024-02-28T09:14:36;102148.13;;;11.06;61.39
51496;BME280;37572;52.094;4.870;2024-02-28T09:17:01;102149.53;;;11.10;61.29
51496;BME280;37572;52.094;4.870;2024-02-28T09:19:32;102158.75;;;11.18;61.11
51496;BME280;37572;52.094;4.870;2024-02-28T09:21:58;102166.22;;;11.24;61.09
51496;BME280;37572;52.094;4.870;2024-02-28T09:24:24;102162.34;;;11.28;60.83
51496;BME280;37572;52.094;4.870;2024-02-28T09:26:49;102162.09;;;11.31;61.03
51496;BME280;37572;52.094;4.870;2024-02-28T09:29:14;102164.63;;;11.33;60.95
51496;BME280;37572;52.094;4.870;2024-02-28T09:31:41;102163.84;;;11.42;60.79
51496;BME280;37572;52.094;4.870;2024-02-28T09:34:06;102162.22;;;11.51;60.95
51496;BME280;37572;52.094;4.870;2024-02-28T09:36:41;102165.50;;;11.54;60.68
51496;BME280;37572;52.094;4.870;2024-02-28T09:39:07;102163.66;;;11.55;60.48
51496;BME280;37572;52.094;4.870;2024-02-28T09:41:32;102159.88;;;11.57;60.71
51496;BME280;37572;52.094;4.870;2024-02-28T09:44:02;102158.78;;;11.60;60.48
51496;BME280;37572;52.094;4.870;2024-02-28T09:46:28;102164.25;;;11.58;60.54
51496;BME280;37572;52.094;4.870;2024-02-28T09:48:54;102163.97;;;11.61;60.49
51496;BME280;37572;52.094;4.870;2024-02-28T09:51:21;102167.94;;;11.67;60.60
51496;BME280;37572;52.094;4.870;2024-02-28T09:53:47;102174.72;;;11.71;60.54
51496;BME280;37572;52.094;4.870;2024-02-28T09:56:12;102174.47;;;11.74;60.60
51496;BME280;37572;52.094;4.870;2024-02-28T09:58:38;102163.25;;;11.80;60.53
51496;BME280;37572;52.094;4.870;2024-02-28T10:01:04;102162.59;;;11.88;60.45
51496;BME280;37572;52.094;4.870;2024-02-28T10:03:35;102161.13;;;11.95;60.49
51496;BME280;37572;52.094;4.870;2024-02-28T10:06:01;102157.34;;;11.98;60.38
51496;BME280;37572;52.094;4.870;2024-02-28T10:08:27;102160.34;;;12.05;60.29
51496;BME280;37572;52.094;4.870;2024-02-28T10:10:54;102158.03;;;12.21;60.44
51496;BME280;37572;52.094;4.870;2024-02-28T10:13:21;102162.72;;;12.38;60.39
51496;BME280;37572;52.094;4.870;2024-02-28T10:15:48;102150.81;;;12.52;60.15
51496;BME280;37572;52.094;4.870;2024-02-28T10:18:14;102141.69;;;12.65;59.87
51496;BME280;37572;52.094;4.870;2024-02-28T10:20:39;102151.59;;;12.74;59.37
51496;BME280;37572;52.094;4.870;2024-02-28T10:23:05;102151.56;;;12.84;59.07
51496;BME280;37572;52.094;4.870;2024-02-28T10:25:32;102146.09;;;12.95;59.19
51496;BME280;37572;52.094;4.870;2024-02-28T10:28:01;102154.69;;;12.99;58.29
51496;BME280;37572;52.094;4.870;2024-02-28T10:30:27;102154.41;;;13.02;58.27
51496;BME280;37572;52.094;4.870;2024-02-28T10:32:52;102145.00;;;13.07;58.35
51496;BME280;37572;52.094;4.870;2024-02-28T10:35:18;102146.13;;;13.14;58.20
51496;BME280;37572;52.094;4.870;2024-02-28T10:37:51;102150.78;;;13.22;57.87
51496;BME280;37572;52.094;4.870;2024-02-28T10:40:17;102154.84;;;13.26;57.80
51496;BME280;37572;52.094;4.870;2024-02-28T10:42:42;102142.84;;;13.30;57.64
51496;BME280;37572;52.094;4.870;2024-02-28T10:45:11;102149.81;;;13.33;57.58
51496;BME280;37572;52.094;4.870;2024-02-28T10:47:38;102155.53;;;13.28;57.14
51496;BME280;37572;52.094;4.870;2024-02-28T10:50:04;102152.72;;;13.20;57.29
51496;BME280;37572;52.094;4.870;2024-02-28T10:52:33;102145.84;;;13.18;57.30
51496;BME280;37572;52.094;4.870;2024-02-28T10:54:59;102151.88;;;13.10;57.42
51496;BME280;37572;52.094;4.870;2024-02-28T10:57:25;102151.19;;;13.08;57.33
51496;BME280;37572;52.094;4.870;2024-02-28T10:59:51;102166.22;;;13.09;57.52
51496;BME280;37572;52.094;4.870;2024-02-28T11:02:17;102155.53;;;13.09;57.58
51496;BME280;37572;52.094;4.870;2024-02-28T11:04:44;102167.91;;;13.00;57.76
51496;BME280;37572;52.094;4.870;2024-02-28T11:07:09;102164.69;;;12.96;57.68
51496;BME280;37572;52.094;4.870;2024-02-28T11:09:35;102158.63;;;12.94;57.87
51496;BME280;37572;52.094;4.870;2024-02-28T11:12:00;102140.63;;;12.96;58.09
51496;BME280;37572;52.094;4.870;2024-02-28T11:14:25;102153.56;;;13.01;58.13
51496;BME280;37572;52.094;4.870;2024-02-28T11:17:02;102157.91;;;13.02;57.90
51496;BME280;37572;52.094;4.870;2024-02-28T11:19:29;102151.03;;;13.00;57.63
51496;BME280;37572;52.094;4.870;2024-02-28T11:21:56;102148.22;;;13.01;57.79
51496;BME280;37572;52.094;4.870;2024-02-28T11:24:23;102145.00;;;13.07;58.05
51496;BME280;37572;52.094;4.870;2024-02-28T11:26:53;102153.31;;;13.14;57.79
51496;BME280;37572;52.094;4.870;2024-02-28T11:29:25;102148.94;;;13.23;57.56
51496;BME280;37572;52.094;4.870;2024-02-28T11:31:52;102149.63;;;13.25;57.42
51496;BME280;37572;52.094;4.870;2024-02-28T11:34:17;102134.13;;;13.28;57.28
51496;BME280;37572;52.094;4.870;2024-02-28T11:36:43;102138.53;;;13.29;57.29
51496;BME280;37572;52.094;4.870;2024-02-28T11:39:08;102129.38;;;13.42;57.28
51496;BME280;37572;52.094;4.870;2024-02-28T11:41:33;102127.09;;;13.47;56.90
51496;BME280;37572;52.094;4.870;2024-02-28T11:43:59;102132.72;;;13.54;56.85
51496;BME280;37572;52.094;4.870;2024-02-28T11:46:26;102124.81;;;13.62;56.69
51496;BME280;37572;52.094;4.870;2024-02-28T11:48:52;102133.25;;;13.67;56.27
51496;BME280;37572;52.094;4.870;2024-02-28T11:51:17;102126.78;;;13.69;56.32
51496;BME280;37572;52.094;4.870;2024-02-28T11:53:42;102124.94;;;13.80;56.20
51496;BME280;37572;52.094;4.870;2024-02-28T11:56:07;102127.59;;;13.90;56.13
51496;BME280;37572;52.094;4.870;2024-02-28T11:58:35;102125.44;;;13.93;55.75
51496;BME280;37572;52.094;4.870;2024-02-28T12:01:01;102120.94;;;13.94;55.63
51496;BME280;37572;52.094;4.870;2024-02-28T12:03:26;102127.44;;;13.91;55.42
51496;BME280;37572;52.094;4.870;2024-02-28T12:05:52;102130.44;;;13.78;55.04
51496;BME280;37572;52.094;4.870;2024-02-28T12:08:18;102136.41;;;13.62;55.18
51496;BME280;37572;52.094;4.870;2024-02-28T12:10:45;102133.19;;;13.39;55.53
51496;BME280;37572;52.094;4.870;2024-02-28T12:13:10;102122.47;;;13.29;56.12
51496;BME280;37572;52.094;4.870;2024-02-28T12:15:39;102122.88;;;13.25;56.14
51496;BME280;37572;52.094;4.870;2024-02-28T12:18:09;102125.28;;;13.28;56.43
51496;BME280;37572;52.094;4.870;2024-02-28T12:20:37;102121.47;;;13.30;56.14
51496;BME280;37572;52.094;4.870;2024-02-28T12:23:05;102120.94;;;13.37;56.32
51496;BME280;37572;52.094;4.870;2024-02-28T12:25:32;102119.09;;;13.47;56.31
51496;BME280;37572;52.094;4.870;2024-02-28T12:27:57;102109.38;;;13.56;56.33
51496;BME280;37572;52.094;4.870;2024-02-28T12:30:22;102109.63;;;13.62;56.24
51496;BME280;37572;52.094;4.870;2024-02-28T12:32:48;102107.94;;;13.61;55.85
51496;BME280;37572;52.094;4.870;2024-02-28T12:35:13;102100.59;;;13.63;56.26
51496;BME280;37572;52.094;4.870;2024-02-28T12:37:38;102105.66;;;13.66;56.19
51496;BME280;37572;52.094;4.870;2024-02-28T12:40:04;102100.16;;;13.68;56.27
51496;BME280;37572;52.094;4.870;2024-02-28T12:42:31;102105.94;;;13.63;56.16
51496;BME280;37572;52.094;4.870;2024-02-28T12:44:56;102099.50;;;13.56;56.44
51496;BME280;37572;52.094;4.870;2024-02-28T12:47:22;102095.81;;;13.57;56.25
51496;BME280;37572;52.094;4.870;2024-02-28T12:49:47;102094.56;;;13.61;55.98